sensor_id;sensor_type;location;lat;lon;timestamp;pressure;altitude;pressure_sealevel;temperature;humidity
79372;BME280;68914;51.262;6.802;2023-04-03T00:00:12;102675.00;;;2.21;77.29
79372;BME280;68914;51.262;6.802;2023-04-03T00:01:13;102673.47;;;2.19;77.17
79372;BME280;68914;51.262;6.802;2023-04-03T00:02:14;102669.47;;;2.13;77.72
79372;BME280;68914;51.262;6.802;2023-04-03T00:03:16;102678.50;;;2.08;77.70
79372;BME280;68914;51.262;6.802;2023-04-03T00:04:17;102668.28;;;2.05;78.11
79372;BME280;68914;51.262;6.802;2023-04-03T00:05:17;102674.59;;;2.01;78.33
79372;BME280;68914;51.262;6.802;2023-04-03T00:06:18;102671.34;;;1.97;78.20
79372;BME280;68914;51.262;6.802;2023-04-03T00:07:19;102675.84;;;1.95;78.50
79372;BME280;68914;51.262;6.802;2023-04-03T00:08:20;102677.03;;;1.89;78.47
79372;BME280;68914;51.262;6.802;2023-04-03T00:09:20;102673.78;;;1.86;78.50
79372;BME280;68914;51.262;6.802;2023-04-03T00:10:21;102679.63;;;1.89;78.37
79372;BME280;68914;51.262;6.802;2023-04-03T00:11:22;102669.44;;;1.86;77.96
79372;BME280;68914;51.262;6.802;2023-04-03T00:12:22;102673.06;;;1.84;78.47
79372;BME280;68914;51.262;6.802;2023-04-03T00:13:23;102671.41;;;1.83;78.34
79372;BME280;68914;51.262;6.802;2023-04-03T00:14:24;102674.25;;;1.78;78.55
79372;BME280;68914;51.262;6.802;2023-04-03T00:15:25;102678.44;;;1.81;78.72
79372;BME280;68914;51.262;6.802;2023-04-03T00:16:25;102673.25;;;1.81;78.94
79372;BME280;68914;51.262;6.802;2023-04-03T00:17:26;102676.84;;;1.78;78.82
79372;BME280;68914;51.262;6.802;2023-04-03T00:18:26;102675.94;;;1.79;78.46
79372;BME280;68914;51.262;6.802;2023-04-03T00:19:27;102671.66;;;1.78;78.50
79372;BME280;68914;51.262;6.802;2023-04-03T00:20:28;102667.69;;;1.72;78.65
79372;BME280;68914;51.262;6.802;2023-04-03T00:21:28;102676.41;;;1.71;79.27
79372;BME280;68914;51.262;6.802;2023-04-03T00:22:30;102669.34;;;1.73;79.33
79372;BME280;68914;51.262;6.802;2023-04-03T00:23:31;102673.81;;;1.71;78.93
79372;BME280;68914;51.262;6.802;2023-04-03T00:24:31;102679.19;;;1.68;79.30
79372;BME280;68914;51.262;6.802;2023-04-03T00:25:32;102670.47;;;1.69;78.84
79372;BME280;68914;51.262;6.802;2023-04-03T00:26:33;102675.75;;;1.68;78.69
79372;BME280;68914;51.262;6.802;2023-04-03T00:27:36;102678.53;;;1.65;79.24
79372;BME280;68914;51.262;6.802;2023-04-03T00:28:37;102672.69;;;1.61;79.12
79372;BME280;68914;51.262;6.802;2023-04-03T00:29:38;102664.81;;;1.63;79.06
79372;BME280;68914;51.262;6.802;2023-04-03T00:30:38;102674.56;;;1.59;78.87
79372;BME280;68914;51.262;6.802;2023-04-03T00:31:39;102677.25;;;1.58;78.68
79372;BME280;68914;51.262;6.802;2023-04-03T00:32:40;102672.78;;;1.60;78.98
79372;BME280;68914;51.262;6.802;2023-04-03T00:33:41;102674.75;;;1.56;79.32
79372;BME280;68914;51.262;6.802;2023-04-03T00:34:42;102673.16;;;1.54;79.23
79372;BME280;68914;51.262;6.802;2023-04-03T00:35:42;102672.25;;;1.55;78.96
79372;BME280;68914;51.262;6.802;2023-04-03T00:36:43;102674.09;;;1.53;79.24
79372;BME280;68914;51.262;6.802;2023-04-03T00:37:45;102665.34;;;1.54;79.02
79372;BME280;68914;51.262;6.802;2023-04-03T00:38:46;102667.66;;;1.58;79.42
79372;BME280;68914;51.262;6.802;2023-04-03T00:39:46;102665.34;;;1.54;79.32
79372;BME280;68914;51.262;6.802;2023-04-03T00:40:48;102668.78;;;1.54;78.98
79372;BME280;68914;51.262;6.802;2023-04-03T00:41:49;102667.78;;;1.57;79.13
79372;BME280;68914;51.262;6.802;2023-04-03T00:42:58;102665.34;;;1.54;79.33
79372;BME280;68914;51.262;6.802;2023-04-03T00:43:59;102662.56;;;1.57;78.53
79372;BME280;68914;51.262;6.802;2023-04-03T00:46:01;102670.28;;;1.58;79.18
79372;BME280;68914;51.262;6.802;2023-04-03T00:47:04;102672.97;;;1.57;79.02
79372;BME280;68914;51.262;6.802;2023-04-03T00:48:08;102675.41;;;1.60;79.08
79372;BME280;68914;51.262;6.802;2023-04-03T00:49:11;102671.31;;;1.56;79.01
79372;BME280;68914;51.262;6.802;2023-04-03T00:50:12;102661.63;;;1.58;79.09
79372;BME280;68914;51.262;6.802;2023-04-03T00:51:20;102671.03;;;1.60;79.03
79372;BME280;68914;51.262;6.802;2023-04-03T00:52:27;102670.19;;;1.60;78.87
79372;BME280;68914;51.262;6.802;2023-04-03T00:53:32;102670.38;;;1.57;79.02
79372;BME280;68914;51.262;6.802;2023-04-03T00:54:36;102670.28;;;1.58;79.36
79372;BME280;68914;51.262;6.802;2023-04-03T00:55:38;102662.69;;;1.55;79.14
79372;BME280;68914;51.262;6.802;2023-04-03T00:56:39;102672.97;;;1.57;79.01
79372;BME280;68914;51.262;6.802;2023-04-03T00:57:40;102666.84;;;1.58;79.28
79372;BME280;68914;51.262;6.802;2023-04-03T00:59:20;102676.50;;;1.56;79.48
79372;BME280;68914;51.262;6.802;2023-04-03T01:00:24;102671.31;;;1.56;79.15
79372;BME280;68914;51.262;6.802;2023-04-03T01:01:27;102669.53;;;1.56;79.28
79372;BME280;68914;51.262;6.802;2023-04-03T01:02:28;102667.78;;;1.57;79.28
79372;BME280;68914;51.262;6.802;2023-04-03T01:03:28;102666.00;;;1.57;79.28
79372;BME280;68914;51.262;6.802;2023-04-03T01:04:34;102666.00;;;1.57;79.46
79372;BME280;68914;51.262;6.802;2023-04-03T01:05:36;102674.75;;;1.56;79.29
79372;BME280;68914;51.262;6.802;2023-04-03T01:06:37;102676.41;;;1.57;79.29
79372;BME280;68914;51.262;6.802;2023-04-03T01:07:41;102671.50;;;1.53;79.25
79372;BME280;68914;51.262;6.802;2023-04-03T01:08:41;102673.91;;;1.56;79.24
79372;BME280;68914;51.262;6.802;2023-04-03T01:09:46;102670.47;;;1.55;79.12
79372;BME280;68914;51.262;6.802;2023-04-03T01:10:48;102671.31;;;1.56;79.32
79372;BME280;68914;51.262;6.802;2023-04-03T01:11:49;102672.03;;;1.58;79.58
79372;BME280;68914;51.262;6.802;2023-04-03T01:12:51;102676.59;;;1.54;79.18
79372;BME280;68914;51.262;6.802;2023-04-03T01:13:52;102673.09;;;1.55;79.47
79372;BME280;68914;51.262;6.802;2023-04-03T01:14:56;102678.34;;;1.54;80.01
79372;BME280;68914;51.262;6.802;2023-04-03T01:15:57;102680.94;;;1.54;79.90
79372;BME280;68914;51.262;6.802;2023-04-03T01:17:00;102677.44;;;1.55;79.78
79372;BME280;68914;51.262;6.802;2023-04-03T01:18:00;102670.66;;;1.52;79.80
79372;BME280;68914;51.262;6.802;2023-04-03T01:19:03;102680.13;;;1.53;79.94
79372;BME280;68914;51.262;6.802;2023-04-03T01:24:34;102673.97;;;1.54;79.80
79372;BME280;68914;51.262;6.802;2023-04-03T01:25:50;102680.78;;;1.57;79.62
79372;BME280;68914;51.262;6.802;2023-04-03T01:26:51;102683.38;;;1.57;79.85
79372;BME280;68914;51.262;6.802;2023-04-03T01:27:52;102682.66;;;1.55;80.21
79372;BME280;68914;51.262;6.802;2023-04-03T01:28:54;102680.78;;;1.57;79.35
79372;BME280;68914;51.262;6.802;2023-04-03T01:29:55;102682.81;;;1.52;79.51
79372;BME280;68914;51.262;6.802;2023-04-03T01:31:06;102683.56;;;1.54;79.39
79372;BME280;68914;51.262;6.802;2023-04-03T01:32:10;102682.66;;;1.55;79.56
79372;BME280;68914;51.262;6.802;2023-04-03T01:33:11;102686.16;;;1.54;80.02
79372;BME280;68914;51.262;6.802;2023-04-03T01:34:12;102684.38;;;1.54;79.50
79372;BME280;68914;51.262;6.802;2023-04-03T01:35:12;102687.84;;;1.55;79.54
79372;BME280;68914;51.262;6.802;2023-04-03T01:36:20;102688.69;;;1.55;79.37
79372;BME280;68914;51.262;6.802;2023-04-03T01:37:22;102685.03;;;1.58;79.24
79372;BME280;68914;51.262;6.802;2023-04-03T01:38:23;102683.38;;;1.57;79.25
79372;BME280;68914;51.262;6.802;2023-04-03T01:39:24;102688.47;;;1.58;79.15
79372;BME280;68914;51.262;6.802;2023-04-03T01:40:25;102688.47;;;1.58;79.42
79372;BME280;68914;51.262;6.802;2023-04-03T01:41:27;102693.50;;;1.61;79.79
79372;BME280;68914;51.262;6.802;2023-04-03T01:42:33;102690.06;;;1.61;79.57
79372;BME280;68914;51.262;6.802;2023-04-03T01:43:34;102692.56;;;1.62;79.21
79372;BME280;68914;51.262;6.802;2023-04-03T01:44:35;102690.81;;;1.63;78.42
79372;BME280;68914;51.262;6.802;2023-04-03T01:45:35;102692.66;;;1.61;79.05
79372;BME280;68914;51.262;6.802;2023-04-03T01:46:36;102689.97;;;1.62;78.77
79372;BME280;68914;51.262;6.802;2023-04-03T01:47:37;102695.81;;;1.66;78.77
79372;BME280;68914;51.262;6.802;2023-04-03T01:48:39;102693.31;;;1.64;78.27
79372;BME280;68914;51.262;6.802;2023-04-03T01:49:40;102694.91;;;1.67;77.65
79372;BME280;68914;51.262;6.802;2023-04-03T01:50:41;102693.13;;;1.67;78.24
79372;BME280;68914;51.262;6.802;2023-04-03T01:51:42;102693.03;;;1.69;78.34
79372;BME280;68914;51.262;6.802;2023-04-03T01:52:43;102685.41;;;1.66;77.96
79372;BME280;68914;51.262;6.802;2023-04-03T01:53:43;102689.69;;;1.67;78.17
79372;BME280;68914;51.262;6.802;2023-04-03T01:54:44;102686.53;;;1.62;78.22
79372;BME280;68914;51.262;6.802;2023-04-03T01:55:44;102686.28;;;1.66;78.09
79372;BME280;68914;51.262;6.802;2023-04-03T01:56:45;102685.69;;;1.61;78.15
79372;BME280;68914;51.262;6.802;2023-04-03T01:57:46;102687.28;;;1.64;78.43
79372;BME280;68914;51.262;6.802;2023-04-03T01:58:47;102691.53;;;1.65;78.56
79372;BME280;68914;51.262;6.802;2023-04-03T01:59:48;102688.13;;;1.64;78.20
79372;BME280;68914;51.262;6.802;2023-04-03T02:00:48;102690.59;;;1.66;78.69
79372;BME280;68914;51.262;6.802;2023-04-03T02:01:49;102690.59;;;1.66;78.47
79372;BME280;68914;51.262;6.802;2023-04-03T02:02:50;102691.47;;;1.66;78.42
79372;BME280;68914;51.262;6.802;2023-04-03T02:03:50;102689.78;;;1.65;78.18
79372;BME280;68914;51.262;6.802;2023-04-03T02:04:51;102689.69;;;1.67;78.75
79372;BME280;68914;51.262;6.802;2023-04-03T02:05:52;102695.81;;;1.66;78.13
79372;BME280;68914;51.262;6.802;2023-04-03T02:06:52;102696.91;;;1.62;77.81
79372;BME280;68914;51.262;6.802;2023-04-03T02:07:53;102694.16;;;1.65;78.27
79372;BME280;68914;51.262;6.802;2023-04-03T02:08:53;102691.72;;;1.62;77.87
79372;BME280;68914;51.262;6.802;2023-04-03T02:09:54;102697.41;;;1.68;77.82
79372;BME280;68914;51.262;6.802;2023-04-03T02:10:55;102698.22;;;1.69;77.22
79372;BME280;68914;51.262;6.802;2023-04-03T02:11:56;102694.06;;;1.66;78.11
79372;BME280;68914;51.262;6.802;2023-04-03T02:12:56;102694.91;;;1.67;77.58
79372;BME280;68914;51.262;6.802;2023-04-03T02:13:57;102695.09;;;1.64;77.92
79372;BME280;68914;51.262;6.802;2023-04-03T02:14:58;102692.31;;;1.67;78.34
79372;BME280;68914;51.262;6.802;2023-04-03T02:16:06;102701.88;;;1.66;78.19
79372;BME280;68914;51.262;6.802;2023-04-03T02:17:07;102692.47;;;1.64;78.20
79372;BME280;68914;51.262;6.802;2023-04-03T02:18:09;102688.00;;;1.66;77.69
79372;BME280;68914;51.262;6.802;2023-04-03T02:19:10;102688.22;;;1.63;78.29
79372;BME280;68914;51.262;6.802;2023-04-03T02:20:10;102690.59;;;1.66;78.40
79372;BME280;68914;51.262;6.802;2023-04-03T02:21:11;102699.34;;;1.65;78.39
79372;BME280;68914;51.262;6.802;2023-04-03T02:22:12;102694.16;;;1.65;78.26
79372;BME280;68914;51.262;6.802;2023-04-03T02:23:12;102693.50;;;1.61;77.99
79372;BME280;68914;51.262;6.802;2023-04-03T02:24:13;102697.03;;;1.60;78.24
79372;BME280;68914;51.262;6.802;2023-04-03T02:25:14;102693.50;;;1.61;78.96
79372;BME280;68914;51.262;6.802;2023-04-03T02:26:16;102697.13;;;1.59;78.73
79372;BME280;68914;51.262;6.802;2023-04-03T02:27:19;102703.91;;;1.61;78.32
79372;BME280;68914;51.262;6.802;2023-04-03T02:28:19;102695.25;;;1.61;78.38
79372;BME280;68914;51.262;6.802;2023-04-03T02:29:20;102699.72;;;1.59;78.25
79372;BME280;68914;51.262;6.802;2023-04-03T02:30:21;102704.06;;;1.58;78.22
79372;BME280;68914;51.262;6.802;2023-04-03T02:31:23;102695.44;;;1.58;78.56
79372;BME280;68914;51.262;6.802;2023-04-03T02:32:24;102699.06;;;1.55;78.47
79372;BME280;68914;51.262;6.802;2023-04-03T02:33:25;102696.47;;;1.55;78.38
79372;BME280;68914;51.262;6.802;2023-04-03T02:34:25;102702.59;;;1.54;78.52
79372;BME280;68914;51.262;6.802;2023-04-03T02:35:27;102706.13;;;1.53;78.82
79372;BME280;68914;51.262;6.802;2023-04-03T02:36:30;102699.25;;;1.52;78.57
79372;BME280;68914;51.262;6.802;2023-04-03T02:37:33;102705.38;;;1.51;78.88
79372;BME280;68914;51.262;6.802;2023-04-03T02:38:34;102705.38;;;1.51;79.04
79372;BME280;68914;51.262;6.802;2023-04-03T02:39:35;102706.94;;;1.54;78.60
79372;BME280;68914;51.262;6.802;2023-04-03T02:40:36;102700.09;;;1.53;78.55
79372;BME280;68914;51.262;6.802;2023-04-03T02:41:37;102707.78;;;1.54;78.79
79372;BME280;68914;51.262;6.802;2023-04-03T02:42:43;102702.41;;;1.57;78.09
79372;BME280;68914;51.262;6.802;2023-04-03T02:43:43;102702.41;;;1.57;78.58
79372;BME280;68914;51.262;6.802;2023-04-03T02:44:44;102705.94;;;1.56;78.64
79372;BME280;68914;51.262;6.802;2023-04-03T02:45:45;102704.06;;;1.58;78.25
79372;BME280;68914;51.262;6.802;2023-04-03T02:46:46;102704.19;;;1.57;78.20
79372;BME280;68914;51.262;6.802;2023-04-03T02:47:46;102700.75;;;1.56;78.59
79372;BME280;68914;51.262;6.802;2023-04-03T02:48:47;102703.06;;;1.61;77.90
79372;BME280;68914;51.262;6.802;2023-04-03T02:49:48;102705.94;;;1.56;78.41
79372;BME280;68914;51.262;6.802;2023-04-03T02:50:49;102704.06;;;1.58;78.44
79372;BME280;68914;51.262;6.802;2023-04-03T02:51:50;102703.44;;;1.55;78.30
79372;BME280;68914;51.262;6.802;2023-04-03T02:52:51;102704.44;;;1.52;78.63
79372;BME280;68914;51.262;6.802;2023-04-03T02:53:52;102706.22;;;1.52;78.61
79372;BME280;68914;51.262;6.802;2023-04-03T02:54:56;102704.44;;;1.52;78.75
79372;BME280;68914;51.262;6.802;2023-04-03T02:55:57;102707.78;;;1.54;78.37
79372;BME280;68914;51.262;6.802;2023-04-03T02:56:57;102705.09;;;1.56;78.67
79372;BME280;68914;51.262;6.802;2023-04-03T02:57:58;102701.97;;;1.51;78.71
79372;BME280;68914;51.262;6.802;2023-04-03T02:58:59;102707.22;;;1.49;78.75
79372;BME280;68914;51.262;6.802;2023-04-03T02:59:59;102702.13;;;1.47;78.94
79372;BME280;68914;51.262;6.802;2023-04-03T03:01:00;102714.03;;;1.52;78.17
79372;BME280;68914;51.262;6.802;2023-04-03T03:02:00;102704.63;;;1.49;79.23
79372;BME280;68914;51.262;6.802;2023-04-03T03:03:01;102705.47;;;1.50;79.12
79372;BME280;68914;51.262;6.802;2023-04-03T03:04:02;102715.13;;;1.47;78.37
79372;BME280;68914;51.262;6.802;2023-04-03T03:05:03;102708.06;;;1.50;78.62
79372;BME280;68914;51.262;6.802;2023-04-03T03:06:06;102706.41;;;1.48;78.81
79372;BME280;68914;51.262;6.802;2023-04-03T03:07:07;102710.47;;;1.53;78.78
79372;BME280;68914;51.262;6.802;2023-04-03T03:08:08;102711.41;;;1.52;78.13
79372;BME280;68914;51.262;6.802;2023-04-03T03:09:08;102716.63;;;1.52;78.58
79372;BME280;68914;51.262;6.802;2023-04-03T03:10:09;102709.66;;;1.52;78.25
79372;BME280;68914;51.262;6.802;2023-04-03T03:11:10;102714.84;;;1.52;78.85
79372;BME280;68914;51.262;6.802;2023-04-03T03:12:11;102709.66;;;1.52;78.99
79372;BME280;68914;51.262;6.802;2023-04-03T03:13:11;102716.69;;;1.50;78.81
79372;BME280;68914;51.262;6.802;2023-04-03T03:14:12;102710.66;;;1.50;78.78
79372;BME280;68914;51.262;6.802;2023-04-03T03:15:12;102714.84;;;1.52;78.88
79372;BME280;68914;51.262;6.802;2023-04-03T03:16:13;102711.31;;;1.53;78.52
79372;BME280;68914;51.262;6.802;2023-04-03T03:17:14;102718.00;;;1.57;78.54
79372;BME280;68914;51.262;6.802;2023-04-03T03:18:15;102717.56;;;1.51;78.53
79372;BME280;68914;51.262;6.802;2023-04-03T03:19:15;102715.50;;;1.56;78.40
79372;BME280;68914;51.262;6.802;2023-04-03T03:20:16;102709.75;;;1.51;79.03
79372;BME280;68914;51.262;6.802;2023-04-03T03:21:17;102710.59;;;1.51;78.94
79372;BME280;68914;51.262;6.802;2023-04-03T03:22:18;102707.78;;;1.54;78.93
79372;BME280;68914;51.262;6.802;2023-04-03T03:23:19;102710.47;;;1.53;78.72
79372;BME280;68914;51.262;6.802;2023-04-03T03:24:20;102709.00;;;1.48;78.62
79372;BME280;68914;51.262;6.802;2023-04-03T03:25:21;102708.81;;;1.52;78.58
79372;BME280;68914;51.262;6.802;2023-04-03T03:26:22;102708.06;;;1.50;78.74
79372;BME280;68914;51.262;6.802;2023-04-03T03:27:24;102698.41;;;1.52;78.36
79372;BME280;68914;51.262;6.802;2023-04-03T03:28:25;102703.03;;;1.46;78.67
79372;BME280;68914;51.262;6.802;2023-04-03T03:29:25;102702.59;;;1.54;78.46
79372;BME280;68914;51.262;6.802;2023-04-03T03:30:26;102704.28;;;1.55;78.57
79372;BME280;68914;51.262;6.802;2023-04-03T03:31:26;102705.28;;;1.53;78.82
79372;BME280;68914;51.262;6.802;2023-04-03T03:32:27;102710.22;;;1.57;78.07
79372;BME280;68914;51.262;6.802;2023-04-03T03:33:28;102704.34;;;1.54;78.14
79372;BME280;68914;51.262;6.802;2023-04-03T03:34:29;102699.06;;;1.55;78.44
79372;BME280;68914;51.262;6.802;2023-04-03T03:35:29;102702.34;;;1.59;77.93
79372;BME280;68914;51.262;6.802;2023-04-03T03:36:30;102709.38;;;1.57;78.14
79372;BME280;68914;51.262;6.802;2023-04-03T03:37:31;102704.94;;;1.59;78.18
79372;BME280;68914;51.262;6.802;2023-04-03T03:38:32;102702.13;;;1.62;77.88
79372;BME280;68914;51.262;6.802;2023-04-03T03:39:35;102704.34;;;1.54;77.91
79372;BME280;68914;51.262;6.802;2023-04-03T03:40:35;102701.41;;;1.60;77.84
79372;BME280;68914;51.262;6.802;2023-04-03T03:41:36;102703.22;;;1.58;77.64
79372;BME280;68914;51.262;6.802;2023-04-03T03:42:38;102700.63;;;1.58;77.57
79372;BME280;68914;51.262;6.802;2023-04-03T03:43:39;102704.94;;;1.59;77.49
79372;BME280;68914;51.262;6.802;2023-04-03T03:44:41;102698.03;;;1.58;77.29
79372;BME280;68914;51.262;6.802;2023-04-03T03:45:42;102700.34;;;1.62;77.11
79372;BME280;68914;51.262;6.802;2023-04-03T03:46:42;102699.63;;;1.60;77.45
79372;BME280;68914;51.262;6.802;2023-04-03T03:47:43;102695.38;;;1.59;77.32
79372;BME280;68914;51.262;6.802;2023-04-03T03:48:44;102696.03;;;1.63;77.32
79372;BME280;68914;51.262;6.802;2023-04-03T03:49:45;102693.31;;;1.64;77.44
79372;BME280;68914;51.262;6.802;2023-04-03T03:50:45;102697.69;;;1.64;76.77
79372;BME280;68914;51.262;6.802;2023-04-03T03:51:47;102691.47;;;1.66;77.51
79372;BME280;68914;51.262;6.802;2023-04-03T03:52:47;102697.56;;;1.65;77.44
79372;BME280;68914;51.262;6.802;2023-04-03T03:53:48;102694.53;;;1.59;77.07
79372;BME280;68914;51.262;6.802;2023-04-03T03:54:52;102690.88;;;1.61;77.35
79372;BME280;68914;51.262;6.802;2023-04-03T03:55:52;102689.88;;;1.64;77.11
79372;BME280;68914;51.262;6.802;2023-04-03T03:56:55;102695.25;;;1.61;77.20
79372;BME280;68914;51.262;6.802;2023-04-03T03:57:58;102691.06;;;1.58;77.09
79372;BME280;68914;51.262;6.802;2023-04-03T03:58:59;102698.88;;;1.58;77.00
79372;BME280;68914;51.262;6.802;2023-04-03T03:59:59;102686.91;;;1.56;77.33
79372;BME280;68914;51.262;6.802;2023-04-03T04:01:04;102691.16;;;1.57;77.06
79372;BME280;68914;51.262;6.802;2023-04-03T04:02:07;102699.63;;;1.60;77.54
79372;BME280;68914;51.262;6.802;2023-04-03T04:03:07;102699.91;;;1.56;76.57
79372;BME280;68914;51.262;6.802;2023-04-03T04:04:08;102692.66;;;1.61;76.91
79372;BME280;68914;51.262;6.802;2023-04-03T04:05:09;102691.81;;;1.60;76.36
79372;BME280;68914;51.262;6.802;2023-04-03T04:06:09;102692.66;;;1.61;76.68
79372;BME280;68914;51.262;6.802;2023-04-03T04:07:10;102696.03;;;1.63;76.55
79372;BME280;68914;51.262;6.802;2023-04-03T04:08:11;102699.63;;;1.60;75.84
79372;BME280;68914;51.262;6.802;2023-04-03T04:09:11;102697.03;;;1.60;76.11
79372;BME280;68914;51.262;6.802;2023-04-03T04:10:12;102696.28;;;1.58;76.21
79372;BME280;68914;51.262;6.802;2023-04-03T04:11:14;102692.56;;;1.62;76.17
79372;BME280;68914;51.262;6.802;2023-04-03T04:12:15;102696.19;;;1.60;76.59
79372;BME280;68914;51.262;6.802;2023-04-03T04:13:16;102699.72;;;1.59;76.14
79372;BME280;68914;51.262;6.802;2023-04-03T04:14:17;102699.72;;;1.59;76.01
79372;BME280;68914;51.262;6.802;2023-04-03T04:15:18;102700.34;;;1.62;76.34
79372;BME280;68914;51.262;6.802;2023-04-03T04:16:19;102702.13;;;1.62;76.32
79372;BME280;68914;51.262;6.802;2023-04-03T04:17:19;102714.22;;;1.63;76.26
79372;BME280;68914;51.262;6.802;2023-04-03T04:18:20;102708.09;;;1.64;76.28
79372;BME280;68914;51.262;6.802;2023-04-03T04:19:23;102711.69;;;1.61;76.19
79372;BME280;68914;51.262;6.802;2023-04-03T04:20:24;102714.88;;;1.66;76.36
79372;BME280;68914;51.262;6.802;2023-04-03T04:21:24;102705.47;;;1.64;75.83
79372;BME280;68914;51.262;6.802;2023-04-03T04:22:27;102713.47;;;1.61;75.84
79372;BME280;68914;51.262;6.802;2023-04-03T04:23:28;102713.19;;;1.65;75.70
79372;BME280;68914;51.262;6.802;2023-04-03T04:24:29;102708.09;;;1.64;75.45
79372;BME280;68914;51.262;6.802;2023-04-03T04:25:30;102710.97;;;1.59;76.06
79372;BME280;68914;51.262;6.802;2023-04-03T04:26:31;102717.00;;;1.60;75.80
79372;BME280;68914;51.262;6.802;2023-04-03T04:27:32;102715.94;;;1.62;75.80
79372;BME280;68914;51.262;6.802;2023-04-03T04:28:32;102713.34;;;1.62;75.66
79372;BME280;68914;51.262;6.802;2023-04-03T04:29:35;102716.72;;;1.64;75.61
79372;BME280;68914;51.262;6.802;2023-04-03T04:30:38;102711.41;;;1.66;75.89
79372;BME280;68914;51.262;6.802;2023-04-03T04:31:39;102709.75;;;1.65;75.88
79372;BME280;68914;51.262;6.802;2023-04-03T04:32:40;102714.41;;;1.60;75.72
79372;BME280;68914;51.262;6.802;2023-04-03T04:33:41;102713.47;;;1.61;75.94
79372;BME280;68914;51.262;6.802;2023-04-03T04:34:43;102719.59;;;1.60;75.81
79372;BME280;68914;51.262;6.802;2023-04-03T04:35:47;102715.84;;;1.50;75.63
79372;BME280;68914;51.262;6.802;2023-04-03T04:36:47;102712.34;;;1.51;76.27
79372;BME280;68914;51.262;6.802;2023-04-03T04:37:48;102717.56;;;1.51;76.47
79372;BME280;68914;51.262;6.802;2023-04-03T04:38:49;102716.69;;;1.50;76.34
79372;BME280;68914;51.262;6.802;2023-04-03T04:39:53;102714.69;;;1.55;75.83
79372;BME280;68914;51.262;6.802;2023-04-03T04:40:54;102720.97;;;1.51;76.10
79372;BME280;68914;51.262;6.802;2023-04-03T04:41:55;102725.34;;;1.51;76.08
79372;BME280;68914;51.262;6.802;2023-04-03T04:42:56;102721.81;;;1.52;75.94
79372;BME280;68914;51.262;6.802;2023-04-03T04:43:57;102723.59;;;1.51;76.13
79372;BME280;68914;51.262;6.802;2023-04-03T04:44:59;102722.47;;;1.55;75.53
79372;BME280;68914;51.262;6.802;2023-04-03T04:46:01;102724.31;;;1.53;75.95
79372;BME280;68914;51.262;6.802;2023-04-03T04:47:02;102724.41;;;1.52;75.58
79372;BME280;68914;51.262;6.802;2023-04-03T04:48:03;102731.38;;;1.51;75.96
79372;BME280;68914;51.262;6.802;2023-04-03T04:49:04;102734.06;;;1.50;75.87
79372;BME280;68914;51.262;6.802;2023-04-03T04:50:05;102735.81;;;1.49;75.57
79372;BME280;68914;51.262;6.802;2023-04-03T04:51:07;102736.47;;;1.53;75.82
79372;BME280;68914;51.262;6.802;2023-04-03T04:52:09;102736.47;;;1.53;75.72
79372;BME280;68914;51.262;6.802;2023-04-03T04:53:11;102736.66;;;1.50;75.21
79372;BME280;68914;51.262;6.802;2023-04-03T04:54:11;102735.53;;;1.54;75.57
79372;BME280;68914;51.262;6.802;2023-04-03T04:55:12;102740.09;;;1.50;75.54
79372;BME280;68914;51.262;6.802;2023-04-03T04:56:13;102739.91;;;1.53;75.51
79372;BME280;68914;51.262;6.802;2023-04-03T04:57:14;102741.41;;;1.57;75.16
79372;BME280;68914;51.262;6.802;2023-04-03T04:58:15;102739.63;;;1.58;75.76
79372;BME280;68914;51.262;6.802;2023-04-03T04:59:16;102744.00;;;1.57;75.60
79372;BME280;68914;51.262;6.802;2023-04-03T05:00:17;102741.56;;;1.54;75.42
79372;BME280;68914;51.262;6.802;2023-04-03T05:01:18;102747.44;;;1.58;75.51
79372;BME280;68914;51.262;6.802;2023-04-03T05:02:27;102746.06;;;1.52;75.73
79372;BME280;68914;51.262;6.802;2023-04-03T05:03:29;102745.28;;;1.50;75.26
79372;BME280;68914;51.262;6.802;2023-04-03T05:04:30;102743.56;;;1.51;75.74
79372;BME280;68914;51.262;6.802;2023-04-03T05:05:37;102752.75;;;1.56;75.61
79372;BME280;68914;51.262;6.802;2023-04-03T05:06:38;102747.44;;;1.58;75.55
79372;BME280;68914;51.262;6.802;2023-04-03T05:07:42;102748.66;;;1.52;75.07
79372;BME280;68914;51.262;6.802;2023-04-03T05:08:43;102746.78;;;1.54;75.30
79372;BME280;68914;51.262;6.802;2023-04-03T05:09:44;102751.06;;;1.55;75.29
79372;BME280;68914;51.262;6.802;2023-04-03T05:10:46;102750.97;;;1.57;75.64
79372;BME280;68914;51.262;6.802;2023-04-03T05:11:48;102744.09;;;1.56;75.29
79372;BME280;68914;51.262;6.802;2023-04-03T05:12:50;102742.50;;;1.53;75.45
79372;BME280;68914;51.262;6.802;2023-04-03T05:13:51;102756.34;;;1.54;75.19
79372;BME280;68914;51.262;6.802;2023-04-03T05:14:52;102759.88;;;1.53;75.38
79372;BME280;68914;51.262;6.802;2023-04-03T05:15:53;102752.25;;;1.50;75.93
79372;BME280;68914;51.262;6.802;2023-04-03T05:16:53;102753.75;;;1.54;75.29
79372;BME280;68914;51.262;6.802;2023-04-03T05:17:56;102754.50;;;1.56;75.70
79372;BME280;68914;51.262;6.802;2023-04-03T05:18:57;102761.00;;;1.48;75.35
79372;BME280;68914;51.262;6.802;2023-04-03T05:19:58;102754.03;;;1.49;75.83
79372;BME280;68914;51.262;6.802;2023-04-03T05:21:00;102761.53;;;1.54;75.58
79372;BME280;68914;51.262;6.802;2023-04-03T05:22:01;102761.09;;;1.47;76.19
79372;BME280;68914;51.262;6.802;2023-04-03T05:23:03;102758.38;;;1.48;76.05
79372;BME280;68914;51.262;6.802;2023-04-03T05:24:04;102759.03;;;1.52;75.82
79372;BME280;68914;51.262;6.802;2023-04-03T05:25:08;102753.09;;;1.50;75.71
79372;BME280;68914;51.262;6.802;2023-04-03T05:26:09;102760.81;;;1.52;75.64
79372;BME280;68914;51.262;6.802;2023-04-03T05:27:10;102756.78;;;1.46;75.84
79372;BME280;68914;51.262;6.802;2023-04-03T05:28:13;102760.22;;;1.46;75.35
79372;BME280;68914;51.262;6.802;2023-04-03T05:29:14;102752.44;;;1.46;75.65
79372;BME280;68914;51.262;6.802;2023-04-03T05:30:16;102757.44;;;1.50;76.01
79372;BME280;68914;51.262;6.802;2023-04-03T05:31:17;102758.38;;;1.48;75.82